createdAt,value
2022-08-28T00:00:01.693Z,1002.26
2022-08-28T00:01:01.728Z,1002.26
2022-08-28T00:02:01.807Z,1002.24
2022-08-28T00:03:01.931Z,1002.23
2022-08-28T00:04:01.983Z,1002.26
2022-08-28T00:05:02.137Z,1002.28
2022-08-28T00:06:02.131Z,1002.29
2022-08-28T00:07:02.182Z,1002.31
2022-08-28T00:08:02.261Z,1002.31
2022-08-28T00:09:02.314Z,1002.32
2022-08-28T00:10:02.513Z,1002.32
2022-08-28T00:11:02.470Z,1002.31
2022-08-28T00:12:02.577Z,1002.31
2022-08-28T00:13:02.628Z,1002.31
2022-08-28T00:14:02.709Z,1002.34
2022-08-28T00:15:02.772Z,1002.31
2022-08-28T00:16:02.901Z,1002.35
2022-08-28T00:17:02.926Z,1002.32
2022-08-28T00:18:03.007Z,1002.32
2022-08-28T00:19:03.597Z,1002.33
2022-08-28T00:20:03.164Z,1002.32
2022-08-28T00:21:03.210Z,1002.29
2022-08-28T00:22:03.285Z,1002.34
2022-08-28T00:23:03.335Z,1002.30
2022-08-28T00:24:03.415Z,1002.32
2022-08-28T00:25:03.479Z,1002.31
2022-08-28T00:26:03.561Z,1002.32
2022-08-28T00:27:03.619Z,1002.37
2022-08-28T00:28:05.301Z,1002.38
2022-08-28T00:29:03.791Z,1002.36
2022-08-28T00:30:03.896Z,1002.35
2022-08-28T00:31:03.986Z,1002.34
2022-08-28T00:32:04.019Z,1002.41
2022-08-28T00:33:04.071Z,1002.42
2022-08-28T00:34:04.170Z,1002.45
2022-08-28T00:35:04.249Z,1002.44
2022-08-28T00:36:04.332Z,1002.42
2022-08-28T00:37:04.383Z,1002.43
2022-08-28T00:38:04.488Z,1002.41
2022-08-28T00:39:04.555Z,1002.40
2022-08-28T00:40:04.708Z,1002.41
2022-08-28T00:41:04.909Z,1002.45
2022-08-28T00:42:04.803Z,1002.41
2022-08-28T00:43:04.853Z,1002.43
2022-08-28T00:44:04.931Z,1002.43
2022-08-28T00:45:05.006Z,1002.39
2022-08-28T00:46:05.152Z,1002.42
2022-08-28T00:47:05.174Z,1002.41
2022-08-28T00:48:05.300Z,1002.41
2022-08-28T00:49:05.323Z,1002.45
2022-08-28T00:50:05.425Z,1002.41
2022-08-28T00:51:05.472Z,1002.43
2022-08-28T00:52:05.548Z,1002.45
2022-08-28T00:53:05.644Z,1002.44
2022-08-28T00:54:07.902Z,1002.42
2022-08-28T00:55:05.828Z,1002.44
2022-08-28T00:56:08.629Z,1002.45
2022-08-28T00:57:05.949Z,1002.45
2022-08-28T00:58:06.122Z,1002.50
2022-08-28T00:59:06.130Z,1002.47
2022-08-28T01:00:06.229Z,1002.49
2022-08-28T01:01:06.274Z,1002.44
2022-08-28T01:02:06.493Z,1002.49
2022-08-28T01:03:06.527Z,1002.46
2022-08-28T01:04:06.560Z,1002.50
2022-08-28T01:05:06.586Z,1002.47
2022-08-28T01:06:06.665Z,1002.48
2022-08-28T01:07:06.718Z,1002.49
2022-08-28T01:08:06.848Z,1002.52
2022-08-28T01:09:06.877Z,1002.56
2022-08-28T01:10:06.949Z,1002.54
2022-08-28T01:11:07.030Z,1002.54
2022-08-28T01:12:07.079Z,1002.55
2022-08-28T01:13:07.155Z,1002.51
2022-08-28T01:14:07.205Z,1002.55
2022-08-28T01:15:07.309Z,1002.53
2022-08-28T01:16:07.421Z,1002.53
2022-08-28T01:17:07.432Z,1002.52
2022-08-28T01:18:08.425Z,1002.51
2022-08-28T01:19:07.591Z,1002.50
2022-08-28T01:20:07.673Z,1002.48
2022-08-28T01:21:07.716Z,1002.48
2022-08-28T01:22:07.767Z,1002.49
2022-08-28T01:23:07.846Z,1002.49
2022-08-28T01:24:07.902Z,1002.52
2022-08-28T01:25:08.003Z,1002.52
2022-08-28T01:26:10.791Z,1002.50
2022-08-28T01:27:08.145Z,1002.52
2022-08-28T01:28:08.293Z,1002.53
2022-08-28T01:29:08.292Z,1002.50
2022-08-28T01:30:08.360Z,1002.48
2022-08-28T01:31:08.514Z,1002.45
2022-08-28T01:32:08.509Z,1002.47
2022-08-28T01:33:08.584Z,1002.46
2022-08-28T01:34:08.635Z,1002.42
2022-08-28T01:35:08.737Z,1002.43
2022-08-28T01:36:08.786Z,1002.45
2022-08-28T01:37:08.871Z,1002.43
2022-08-28T01:38:08.937Z,1002.42
2022-08-28T01:39:09.009Z,1002.42
2022-08-28T01:40:09.117Z,1002.39
2022-08-28T01:41:09.134Z,1002.42
2022-08-28T01:42:09.187Z,1002.38
2022-08-28T01:43:09.267Z,1002.37
2022-08-28T01:44:09.324Z,1002.35
2022-08-28T01:45:09.444Z,1002.40
2022-08-28T01:46:09.578Z,1002.39
2022-08-28T01:47:09.588Z,1002.39
2022-08-28T01:48:09.868Z,1002.38
2022-08-28T01:49:09.743Z,1002.38
2022-08-28T01:50:09.809Z,1002.44
2022-08-28T01:51:09.886Z,1002.41
2022-08-28T01:52:09.981Z,1002.40
2022-08-28T01:53:12.382Z,1002.42
2022-08-28T01:54:10.134Z,1002.43
2022-08-28T01:55:10.238Z,1002.40
2022-08-28T01:56:10.286Z,1002.40
2022-08-28T01:57:10.356Z,1002.40
2022-08-28T01:58:10.583Z,1002.43
2022-08-28T01:59:10.525Z,1002.43
2022-08-28T02:00:10.591Z,1002.42
2022-08-28T02:01:10.763Z,1002.45
2022-08-28T02:02:10.870Z,1002.47
2022-08-28T02:03:10.823Z,1002.49
2022-08-28T02:04:10.917Z,1002.50
2022-08-28T02:05:10.978Z,1002.50
2022-08-28T02:06:11.051Z,1002.48
2022-08-28T02:07:11.123Z,1002.48
2022-08-28T02:08:11.177Z,1002.52
2022-08-28T02:09:14.222Z,1002.52
2022-08-28T02:10:11.367Z,1002.53
2022-08-28T02:11:11.447Z,1002.54
2022-08-28T02:12:11.501Z,1002.60
2022-08-28T02:13:11.577Z,1002.58
2022-08-28T02:14:11.628Z,1002.57
2022-08-28T02:15:11.725Z,1002.59
2022-08-28T02:16:11.820Z,1002.63
2022-08-28T02:17:11.842Z,1002.64
2022-08-28T02:18:12.087Z,1002.63
2022-08-28T02:19:11.991Z,1002.63
2022-08-28T02:20:12.052Z,1002.66
2022-08-28T02:21:12.133Z,1002.62
2022-08-28T02:22:12.187Z,1002.64
2022-08-28T02:23:12.288Z,1002.67
2022-08-28T02:24:12.365Z,1002.69
2022-08-28T02:25:12.462Z,1002.69
2022-08-28T02:26:12.509Z,1002.66
2022-08-28T02:27:12.589Z,1002.67
2022-08-28T02:28:12.800Z,1002.67
2022-08-28T02:29:12.763Z,1002.70
2022-08-28T02:30:12.847Z,1002.71
2022-08-28T02:31:13.039Z,1002.65
2022-08-28T02:32:12.972Z,1002.69
2022-08-28T02:33:13.070Z,1002.69
2022-08-28T02:34:13.124Z,1002.68
2022-08-28T02:35:13.217Z,1002.65
2022-08-28T02:36:13.264Z,1002.68
2022-08-28T02:37:13.372Z,1002.67
2022-08-28T02:38:13.542Z,1002.67
2022-08-28T02:39:13.510Z,1002.67
2022-08-28T02:40:13.622Z,1002.65
2022-08-28T02:41:13.653Z,1002.69
2022-08-28T02:42:13.706Z,1002.65
2022-08-28T02:43:13.812Z,1002.67
2022-08-28T02:44:13.892Z,1002.63
2022-08-28T02:45:14.107Z,1002.68
2022-08-28T02:46:14.061Z,1002.65
2022-08-28T02:47:14.127Z,1002.65
2022-08-28T02:48:17.009Z,1002.64
2022-08-28T02:49:14.289Z,1002.67
2022-08-28T02:50:14.377Z,1002.61
2022-08-28T02:51:14.459Z,1002.61
2022-08-28T02:52:14.509Z,1002.62
2022-08-28T02:53:14.588Z,1002.61
2022-08-28T02:54:14.769Z,1002.58
2022-08-28T02:55:14.749Z,1002.59
2022-08-28T02:56:14.793Z,1002.58
2022-08-28T02:57:14.871Z,1002.59
2022-08-28T02:58:14.922Z,1002.58
2022-08-28T02:59:15.021Z,1002.54
2022-08-28T03:00:15.112Z,1002.54
2022-08-28T03:01:15.233Z,1002.51
2022-08-28T03:02:15.313Z,1002.54
2022-08-28T03:03:15.334Z,1002.51
2022-08-28T03:04:15.386Z,1002.52
2022-08-28T03:05:15.572Z,1002.53
2022-08-28T03:06:15.529Z,1002.52
2022-08-28T03:07:15.627Z,1002.53
2022-08-28T03:08:15.678Z,1002.53
2022-08-28T03:09:15.776Z,1002.52
2022-08-28T03:10:15.839Z,1002.49
2022-08-28T03:11:15.903Z,1002.48
2022-08-28T03:12:15.957Z,1002.49
2022-08-28T03:13:26.514Z,1002.54
2022-08-28T03:14:16.094Z,1002.47
2022-08-28T03:15:16.204Z,1002.50
2022-08-28T03:16:16.293Z,1002.51
2022-08-28T03:17:16.325Z,1002.54
2022-08-28T03:18:16.649Z,1002.55
2022-08-28T03:19:16.457Z,1002.53
2022-08-28T03:20:16.519Z,1002.56
2022-08-28T03:21:16.601Z,1002.59
2022-08-28T03:22:16.653Z,1002.55
2022-08-28T03:23:16.736Z,1002.60
2022-08-28T03:24:16.784Z,1002.58
2022-08-28T03:25:16.911Z,1002.57
2022-08-28T03:26:16.957Z,1002.61
2022-08-28T03:27:17.036Z,1002.63
2022-08-28T03:28:17.088Z,1002.62
2022-08-28T03:29:17.167Z,1002.67
2022-08-28T03:30:17.233Z,1002.67
2022-08-28T03:31:17.361Z,1002.70
2022-08-28T03:32:17.392Z,1002.66
2022-08-28T03:33:17.491Z,1002.69
2022-08-28T03:34:17.564Z,1002.68
2022-08-28T03:35:17.674Z,1002.70
2022-08-28T03:36:17.721Z,1002.70
2022-08-28T03:37:17.820Z,1002.73
2022-08-28T03:38:17.874Z,1002.69
2022-08-28T03:39:17.952Z,1002.72
2022-08-28T03:40:18.072Z,1002.73
2022-08-28T03:41:18.084Z,1002.75
2022-08-28T03:42:18.136Z,1002.76
2022-08-28T03:43:18.222Z,1002.73
2022-08-28T03:44:18.271Z,1002.74
2022-08-28T03:45:18.383Z,1002.78
2022-08-28T03:46:18.488Z,1002.76
2022-08-28T03:47:18.506Z,1002.75
2022-08-28T03:48:18.583Z,1002.75
2022-08-28T03:49:18.662Z,1002.74
2022-08-28T03:50:18.736Z,1002.75
2022-08-28T03:51:18.801Z,1002.77
2022-08-28T03:52:18.855Z,1002.77
2022-08-28T03:53:18.934Z,1002.79
2022-08-28T03:54:18.990Z,1002.82
2022-08-28T03:55:19.089Z,1002.81
2022-08-28T03:56:19.161Z,1002.79
2022-08-28T03:57:19.259Z,1002.81
2022-08-28T03:58:19.421Z,1002.82
2022-08-28T03:59:19.418Z,1002.78
2022-08-28T04:00:19.490Z,1002.79
2022-08-28T04:01:19.622Z,1002.79
2022-08-28T04:02:19.637Z,1002.78
2022-08-28T04:03:19.778Z,1002.81
2022-08-28T04:04:19.789Z,1002.80
2022-08-28T04:05:20.151Z,1002.78
2022-08-28T04:06:19.954Z,1002.75
2022-08-28T04:07:20.022Z,1002.76
2022-08-28T04:08:20.080Z,1002.76
2022-08-28T04:09:20.163Z,1002.77
2022-08-28T04:10:20.238Z,1002.82
2022-08-28T04:11:20.296Z,1002.78
2022-08-28T04:12:20.349Z,1002.82
2022-08-28T04:13:20.432Z,1002.83
2022-08-28T04:14:20.489Z,1002.86
2022-08-28T04:15:20.601Z,1002.85
2022-08-28T04:16:20.802Z,1002.84
2022-08-28T04:17:20.730Z,1002.87
2022-08-28T04:18:20.795Z,1002.89
2022-08-28T04:19:20.891Z,1002.92
2022-08-28T04:20:20.976Z,1002.90
2022-08-28T04:21:21.053Z,1002.94
2022-08-28T04:22:21.107Z,1002.95
2022-08-28T04:23:21.203Z,1002.96
2022-08-28T04:24:21.254Z,1002.95
2022-08-28T04:25:21.376Z,1002.94
2022-08-28T04:26:21.421Z,1002.97
2022-08-28T04:27:21.502Z,1002.95
2022-08-28T04:28:21.556Z,1002.95
2022-08-28T04:29:21.639Z,1002.99
2022-08-28T04:30:21.700Z,1003.00
2022-08-28T04:31:32.467Z,1003.00
2022-08-28T04:32:21.873Z,1002.99
2022-08-28T04:33:21.945Z,1002.99
2022-08-28T04:34:22.005Z,1003.00
2022-08-28T04:35:22.388Z,1002.96
2022-08-28T04:36:22.166Z,1002.98
2022-08-28T04:37:22.816Z,1003.01
2022-08-28T04:38:22.309Z,1003.00
2022-08-28T04:39:22.387Z,1003.04
2022-08-28T04:40:22.770Z,1003.05
2022-08-28T04:41:22.515Z,1003.08
2022-08-28T04:42:22.568Z,1003.08
2022-08-28T04:43:22.649Z,1003.07
2022-08-28T04:44:22.721Z,1003.06
2022-08-28T04:45:22.815Z,1003.10
2022-08-28T04:46:22.862Z,1003.10
2022-08-28T04:47:22.940Z,1003.12
2022-08-28T04:48:22.993Z,1003.12
2022-08-28T04:49:23.073Z,1003.14
2022-08-28T04:50:23.141Z,1003.16
2022-08-28T04:51:23.221Z,1003.14
2022-08-28T04:52:23.278Z,1003.16
2022-08-28T04:53:23.359Z,1003.22
2022-08-28T04:54:23.414Z,1003.23
2022-08-28T04:55:24.391Z,1003.23
2022-08-28T04:56:23.577Z,1003.19
2022-08-28T04:57:23.658Z,1003.20
2022-08-28T04:58:24.362Z,1003.22
2022-08-28T04:59:23.795Z,1003.22
2022-08-28T05:00:23.857Z,1003.24
2022-08-28T05:01:23.998Z,1003.25
2022-08-28T05:02:24.058Z,1003.26
2022-08-28T05:03:24.119Z,1003.27
2022-08-28T05:04:24.185Z,1003.30
2022-08-28T05:05:24.290Z,1003.31
2022-08-28T05:06:24.338Z,1003.33
2022-08-28T05:07:24.424Z,1003.34
2022-08-28T05:08:24.477Z,1003.35
2022-08-28T05:09:24.558Z,1003.33
2022-08-28T05:10:24.644Z,1003.34
2022-08-28T05:11:34.256Z,1003.31
2022-08-28T05:12:24.788Z,1003.34
2022-08-28T05:13:24.872Z,1003.39
2022-08-28T05:14:24.942Z,1003.39
2022-08-28T05:15:25.040Z,1003.36
2022-08-28T05:16:25.098Z,1003.37
2022-08-28T05:17:25.177Z,1003.44
2022-08-28T05:18:25.240Z,1003.43
2022-08-28T05:19:25.326Z,1003.47
2022-08-28T05:20:25.422Z,1003.48
2022-08-28T05:21:25.494Z,1003.48
2022-08-28T05:22:25.548Z,1003.50
2022-08-28T05:23:25.764Z,1003.55
2022-08-28T05:24:25.694Z,1003.55
2022-08-28T05:25:26.061Z,1003.55
2022-08-28T05:26:26.751Z,1003.53
2022-08-28T05:27:25.932Z,1003.55
2022-08-28T05:28:26.011Z,1003.58
2022-08-28T05:29:26.098Z,1003.59
2022-08-28T05:30:26.200Z,1003.63
2022-08-28T05:31:26.314Z,1003.62
2022-08-28T05:32:26.345Z,1003.61
2022-08-28T05:33:26.436Z,1003.65
2022-08-28T05:34:26.518Z,1003.69
2022-08-28T05:35:26.682Z,1003.63
2022-08-28T05:36:32.446Z,1003.64
2022-08-28T05:37:26.742Z,1003.63
2022-08-28T05:38:26.825Z,1003.66
2022-08-28T05:39:26.873Z,1003.68
2022-08-28T05:40:27.043Z,1003.66
2022-08-28T05:41:27.013Z,1003.66
2022-08-28T05:42:30.763Z,1003.65
2022-08-28T05:43:27.169Z,1003.62
2022-08-28T05:44:27.252Z,1003.66
2022-08-28T05:45:27.329Z,1003.64
2022-08-28T05:46:27.387Z,1003.62
2022-08-28T05:47:27.436Z,1003.61
2022-08-28T05:48:27.514Z,1003.62
2022-08-28T05:49:27.584Z,1003.63
2022-08-28T05:50:27.679Z,1003.65
2022-08-28T05:51:27.726Z,1003.58
2022-08-28T05:52:27.807Z,1003.58
2022-08-28T05:53:27.856Z,1003.55
2022-08-28T05:54:29.140Z,1003.62
2022-08-28T05:55:28.026Z,1003.62
2022-08-28T05:56:28.100Z,1003.67
2022-08-28T05:57:28.150Z,1003.66
2022-08-28T05:58:28.232Z,1003.64
2022-08-28T05:59:28.304Z,1003.67
2022-08-28T06:00:28.395Z,1003.66
2022-08-28T06:01:28.535Z,1003.66
2022-08-28T06:02:28.545Z,1003.72
2022-08-28T06:03:28.597Z,1003.72
2022-08-28T06:04:28.765Z,1003.68
2022-08-28T06:05:28.787Z,1003.70
2022-08-28T06:06:28.825Z,1003.69
2022-08-28T06:07:28.905Z,1003.77
2022-08-28T06:08:28.981Z,1003.71
2022-08-28T06:09:30.074Z,1003.75
2022-08-28T06:10:29.176Z,1003.75
2022-08-28T06:11:30.880Z,1003.71
2022-08-28T06:12:29.297Z,1003.72
2022-08-28T06:13:29.375Z,1003.77
2022-08-28T06:14:29.458Z,1003.74
2022-08-28T06:15:29.678Z,1003.74
2022-08-28T06:16:29.693Z,1003.74
2022-08-28T06:17:29.685Z,1003.79
2022-08-28T06:18:29.778Z,1003.74
2022-08-28T06:19:29.825Z,1003.73
2022-08-28T06:20:29.940Z,1003.75
2022-08-28T06:21:29.998Z,1003.78
2022-08-28T06:22:30.075Z,1003.77
2022-08-28T06:23:30.162Z,1003.78
2022-08-28T06:24:30.256Z,1003.80
2022-08-28T06:25:30.368Z,1003.80
2022-08-28T06:26:30.441Z,1003.83
2022-08-28T06:27:30.527Z,1003.82
2022-08-28T06:28:30.601Z,1003.84
2022-08-28T06:29:30.692Z,1003.86
2022-08-28T06:30:30.782Z,1003.93
2022-08-28T06:31:33.376Z,1004.12
2022-08-28T06:32:30.971Z,1004.12
2022-08-28T06:33:30.948Z,1004.07
2022-08-28T06:34:31.019Z,1003.93
2022-08-28T06:35:31.227Z,1003.94
2022-08-28T06:36:31.192Z,1003.91
2022-08-28T06:37:31.230Z,1003.93
2022-08-28T06:38:31.303Z,1003.93
2022-08-28T06:39:31.356Z,1003.95
2022-08-28T06:40:31.566Z,1003.95
2022-08-28T06:41:31.539Z,1003.91
2022-08-28T06:42:31.608Z,1003.95
2022-08-28T06:43:31.688Z,1003.98
2022-08-28T06:44:31.801Z,1003.94
2022-08-28T06:45:31.966Z,1003.97
2022-08-28T06:46:31.969Z,1003.95
2022-08-28T06:47:32.052Z,1003.95
2022-08-28T06:48:32.126Z,1003.97
2022-08-28T06:49:32.177Z,1004.01
2022-08-28T06:50:32.298Z,1004.02
2022-08-28T06:51:32.369Z,1004.03
2022-08-28T06:52:32.478Z,1004.10
2022-08-28T06:53:32.560Z,1004.00
2022-08-28T06:54:32.650Z,1004.07
2022-08-28T06:55:32.843Z,1004.02
2022-08-28T06:56:32.828Z,1004.00
2022-08-28T06:57:32.917Z,1004.05
2022-08-28T06:58:33.009Z,1004.05
2022-08-28T06:59:33.090Z,1004.07
2022-08-28T07:00:33.175Z,1004.01
2022-08-28T07:01:33.364Z,1003.99
2022-08-28T07:02:33.352Z,1003.98
2022-08-28T07:03:33.398Z,1004.01
2022-08-28T07:04:33.467Z,1004.03
2022-08-28T07:05:33.569Z,1003.99
2022-08-28T07:06:33.639Z,1004.04
2022-08-28T07:07:33.690Z,1004.04
2022-08-28T07:08:33.763Z,1004.10
2022-08-28T07:09:33.844Z,1004.06
2022-08-28T07:10:33.939Z,1004.05
2022-08-28T07:11:33.976Z,1004.05
2022-08-28T07:12:34.090Z,1004.07
2022-08-28T07:13:34.167Z,1004.33
2022-08-28T07:14:34.242Z,1004.34
2022-08-28T07:15:34.438Z,1004.32
2022-08-28T07:16:34.394Z,1004.30
2022-08-28T07:17:34.475Z,1004.23
2022-08-28T07:18:34.552Z,1004.06
2022-08-28T07:19:34.638Z,1004.16
2022-08-28T07:20:34.845Z,1004.06
2022-08-28T07:21:38.233Z,1004.08
2022-08-28T07:22:34.883Z,1004.04
2022-08-28T07:23:34.955Z,1004.08
2022-08-28T07:24:35.029Z,1004.08
2022-08-28T07:25:35.132Z,1004.11
2022-08-28T07:26:35.747Z,1004.10
2022-08-28T07:27:35.267Z,1004.08
2022-08-28T07:28:35.357Z,1004.08
2022-08-28T07:29:35.439Z,1004.13
2022-08-28T07:30:35.557Z,1004.09
2022-08-28T07:31:35.592Z,1004.15
2022-08-28T07:32:35.655Z,1004.20
2022-08-28T07:33:35.726Z,1004.10
2022-08-28T07:34:35.797Z,1004.15
2022-08-28T07:35:35.908Z,1004.15
2022-08-28T07:36:35.991Z,1004.19
2022-08-28T07:37:36.055Z,1004.19
2022-08-28T07:38:36.163Z,1004.19
2022-08-28T07:39:36.215Z,1004.20
2022-08-28T07:40:36.396Z,1004.24
2022-08-28T07:41:36.340Z,1004.24
2022-08-28T07:42:36.416Z,1004.29
2022-08-28T07:43:36.500Z,1004.35
2022-08-28T07:44:36.572Z,1004.50
2022-08-28T07:45:36.718Z,1004.26
2022-08-28T07:46:36.736Z,1004.28
2022-08-28T07:47:36.823Z,1004.27
2022-08-28T07:48:36.907Z,1004.28
2022-08-28T07:49:36.988Z,1004.32
2022-08-28T07:50:37.075Z,1004.28
2022-08-28T07:51:37.128Z,1004.27
2022-08-28T07:52:37.204Z,1004.33
2022-08-28T07:53:37.291Z,1004.32
2022-08-28T07:54:37.383Z,1004.32
2022-08-28T07:55:37.493Z,1004.33
2022-08-28T07:56:37.556Z,1004.32
2022-08-28T07:57:37.626Z,1004.32
2022-08-28T07:58:37.709Z,1004.31
2022-08-28T07:59:37.785Z,1004.42
2022-08-28T08:00:37.884Z,1004.38
2022-08-28T08:01:37.978Z,1004.42
2022-08-28T08:02:38.042Z,1004.63
2022-08-28T08:03:38.186Z,1004.60
2022-08-28T08:04:38.185Z,1004.54
2022-08-28T08:05:38.279Z,1004.48
2022-08-28T08:06:38.323Z,1004.43
2022-08-28T08:07:38.396Z,1004.41
2022-08-28T08:08:38.471Z,1004.35
2022-08-28T08:09:38.543Z,1004.44
2022-08-28T08:10:38.638Z,1004.43
2022-08-28T08:11:38.708Z,1004.44
2022-08-28T08:12:38.792Z,1004.41
2022-08-28T08:13:38.870Z,1004.64
2022-08-28T08:14:38.918Z,1004.49
2022-08-28T08:15:39.085Z,1004.49
2022-08-28T08:16:39.293Z,1004.43
2022-08-28T08:17:39.192Z,1004.46
2022-08-28T08:18:39.280Z,1004.58
2022-08-28T08:19:39.358Z,1004.62
2022-08-28T08:20:39.463Z,1004.45
2022-08-28T08:21:39.535Z,1004.65
2022-08-28T08:22:39.617Z,1004.57
2022-08-28T08:23:39.710Z,1004.56
2022-08-28T08:24:39.797Z,1004.69
2022-08-28T08:25:39.896Z,1004.64
2022-08-28T08:26:39.925Z,1004.68
2022-08-28T08:27:43.077Z,1004.65
2022-08-28T08:28:40.083Z,1004.64
2022-08-28T08:29:40.154Z,1004.66
2022-08-28T08:30:40.252Z,1004.61
2022-08-28T08:31:43.982Z,1004.61
2022-08-28T08:32:40.390Z,1004.66
2022-08-28T08:33:40.466Z,1004.64
2022-08-28T08:34:40.553Z,1004.63
2022-08-28T08:35:40.678Z,1004.68
2022-08-28T08:36:40.686Z,1004.72
2022-08-28T08:37:40.780Z,1004.63
2022-08-28T08:38:40.865Z,1004.67
2022-08-28T08:39:40.958Z,1004.64
2022-08-28T08:40:41.086Z,1004.65
2022-08-28T08:41:41.141Z,1004.64
2022-08-28T08:42:41.224Z,1004.67
2022-08-28T08:43:41.300Z,1004.65
2022-08-28T08:44:41.390Z,1004.46
2022-08-28T08:45:41.532Z,1004.73
2022-08-28T08:46:41.580Z,1004.75
2022-08-28T08:47:41.629Z,1004.70
2022-08-28T08:48:41.700Z,1004.70
2022-08-28T08:49:41.809Z,1004.66
2022-08-28T08:50:41.911Z,1004.71
2022-08-28T08:51:41.992Z,1004.69
2022-08-28T08:52:42.079Z,1004.68
2022-08-28T08:53:42.157Z,1004.65
2022-08-28T08:54:42.246Z,1004.71
2022-08-28T08:55:42.345Z,1004.69
2022-08-28T08:56:42.374Z,1004.66
2022-08-28T08:57:42.465Z,1004.62
2022-08-28T08:58:42.528Z,1004.68
2022-08-28T08:59:42.603Z,1004.64
2022-08-28T09:00:42.779Z,1004.63
2022-08-28T09:01:42.837Z,1004.64
2022-08-28T09:02:42.875Z,1004.67
2022-08-28T09:03:43.516Z,1004.69
2022-08-28T09:04:43.007Z,1004.63
2022-08-28T09:05:43.140Z,1004.81
2022-08-28T09:06:43.163Z,1004.80
2022-08-28T09:07:43.323Z,1004.73
2022-08-28T09:08:43.316Z,1004.77
2022-08-28T09:09:43.412Z,1004.79
2022-08-28T09:10:43.508Z,1004.76
2022-08-28T09:11:43.587Z,1004.73
2022-08-28T09:12:43.674Z,1004.82
2022-08-28T09:13:43.755Z,1004.80
2022-08-28T09:14:43.803Z,1004.80
2022-08-28T09:15:46.311Z,1004.63
2022-08-28T09:16:43.947Z,1004.79
2022-08-28T09:17:44.022Z,1004.91
2022-08-28T09:18:44.116Z,1004.86
2022-08-28T09:19:44.189Z,1004.85
2022-08-28T09:20:44.338Z,1004.81
2022-08-28T09:21:44.370Z,1004.80
2022-08-28T09:22:44.449Z,1004.86
2022-08-28T09:23:44.517Z,1004.86
2022-08-28T09:24:44.567Z,1004.85
2022-08-28T09:25:44.730Z,1004.88
2022-08-28T09:26:44.696Z,1004.90
2022-08-28T09:27:44.777Z,1004.80
2022-08-28T09:28:44.857Z,1004.74
2022-08-28T09:29:44.932Z,1004.73
2022-08-28T09:30:45.120Z,1004.95
2022-08-28T09:31:45.096Z,1004.98
2022-08-28T09:32:45.179Z,1004.90
2022-08-28T09:33:45.253Z,1004.89
2022-08-28T09:34:45.340Z,1004.97
2022-08-28T09:35:45.438Z,1004.89
2022-08-28T09:36:45.488Z,1004.92
2022-08-28T09:37:45.584Z,1004.94
2022-08-28T09:38:45.669Z,1004.88
2022-08-28T09:39:48.854Z,1004.83
2022-08-28T09:40:45.875Z,1004.94
2022-08-28T09:41:45.916Z,1004.91
2022-08-28T09:42:45.989Z,1004.92
2022-08-28T09:43:46.063Z,1004.89
2022-08-28T09:44:46.136Z,1004.90
2022-08-28T09:45:46.211Z,1004.85
2022-08-28T09:46:46.327Z,1004.87
2022-08-28T09:47:47.319Z,1004.85
2022-08-28T09:48:46.474Z,1004.87
2022-08-28T09:49:46.555Z,1004.82
2022-08-28T09:50:46.640Z,1004.77
2022-08-28T09:51:46.682Z,1004.78
2022-08-28T09:52:46.774Z,1004.78
2022-08-28T09:53:46.865Z,1004.80
2022-08-28T09:54:46.936Z,1004.78
2022-08-28T09:55:47.034Z,1004.82
2022-08-28T09:56:47.106Z,1004.74
2022-08-28T09:57:47.188Z,1004.80
2022-08-28T09:58:47.321Z,1004.78
2022-08-28T09:59:47.364Z,1004.74
2022-08-28T10:00:47.453Z,1004.76
2022-08-28T10:01:47.552Z,1004.80
2022-08-28T10:02:47.594Z,1004.82
2022-08-28T10:03:47.676Z,1004.81
2022-08-28T10:04:47.795Z,1004.80
2022-08-28T10:05:47.822Z,1004.84
2022-08-28T10:06:47.903Z,1004.83
2022-08-28T10:07:47.977Z,1004.88
2022-08-28T10:08:48.049Z,1004.88
2022-08-28T10:09:48.189Z,1004.83
2022-08-28T10:10:48.235Z,1004.82
2022-08-28T10:11:48.282Z,1004.87
2022-08-28T10:12:48.392Z,1004.86
2022-08-28T10:13:48.440Z,1004.84
2022-08-28T10:14:48.515Z,1004.89
2022-08-28T10:15:48.638Z,1004.86
2022-08-28T10:16:48.668Z,1004.82
2022-08-28T10:17:48.751Z,1004.85
2022-08-28T10:18:48.826Z,1004.85
2022-08-28T10:19:48.912Z,1004.86
2022-08-28T10:20:49.017Z,1004.88
2022-08-28T10:21:49.048Z,1004.83
2022-08-28T10:22:49.152Z,1004.81
2022-08-28T10:23:49.239Z,1004.96
2022-08-28T10:24:49.331Z,1004.86
2022-08-28T10:25:49.442Z,1004.90
2022-08-28T10:26:49.518Z,1004.84
2022-08-28T10:27:49.586Z,1004.88
2022-08-28T10:28:49.659Z,1004.82
2022-08-28T10:29:49.741Z,1004.91
2022-08-28T10:30:49.882Z,1004.84
2022-08-28T10:31:49.901Z,1004.83
2022-08-28T10:32:49.992Z,1004.81
2022-08-28T10:33:50.073Z,1004.85
2022-08-28T10:34:50.147Z,1004.85
2022-08-28T10:35:50.251Z,1004.81
2022-08-28T10:36:50.306Z,1004.79
2022-08-28T10:37:50.388Z,1004.76
2022-08-28T10:38:52.948Z,1004.80
2022-08-28T10:39:50.532Z,1004.85
2022-08-28T10:40:50.621Z,1004.83
2022-08-28T10:41:50.670Z,1004.74
2022-08-28T10:42:50.735Z,1004.79
2022-08-28T10:43:50.817Z,1004.81
2022-08-28T10:44:50.890Z,1004.84
2022-08-28T10:45:51.016Z,1004.78
2022-08-28T10:46:51.030Z,1004.80
2022-08-28T10:47:51.111Z,1004.80
2022-08-28T10:48:51.188Z,1004.80
2022-08-28T10:49:51.267Z,1004.83
2022-08-28T10:50:51.351Z,1004.79
2022-08-28T10:51:51.426Z,1004.78
2022-08-28T10:52:51.529Z,1004.81
2022-08-28T10:53:51.570Z,1004.75
2022-08-28T10:54:51.643Z,1004.73
2022-08-28T10:55:51.740Z,1004.78
2022-08-28T10:56:56.477Z,1004.80
2022-08-28T10:57:51.879Z,1004.83
2022-08-28T10:58:51.958Z,1004.79
2022-08-28T10:59:52.007Z,1004.84
2022-08-28T11:00:52.117Z,1004.88
2022-08-28T11:01:52.239Z,1004.83
2022-08-28T11:02:52.288Z,1004.82
2022-08-28T11:03:52.328Z,1004.78
2022-08-28T11:04:56.494Z,1004.74
2022-08-28T11:05:53.835Z,1004.77
2022-08-28T11:06:52.580Z,1004.79
2022-08-28T11:07:52.628Z,1004.81
2022-08-28T11:08:52.708Z,1004.82
2022-08-28T11:09:52.759Z,1004.80
2022-08-28T11:10:52.855Z,1004.82
2022-08-28T11:11:52.896Z,1004.77
2022-08-28T11:12:52.991Z,1004.75
2022-08-28T11:13:53.039Z,1004.78
2022-08-28T11:14:53.111Z,1004.79
2022-08-28T11:15:53.210Z,1004.76
2022-08-28T11:16:53.300Z,1004.73
2022-08-28T11:17:53.344Z,1004.82
2022-08-28T11:18:53.426Z,1004.82
2022-08-28T11:19:53.478Z,1004.81
2022-08-28T11:20:53.574Z,1004.82
2022-08-28T11:21:53.633Z,1004.77
2022-08-28T11:22:53.712Z,1004.74
2022-08-28T11:23:53.801Z,1004.77
2022-08-28T11:24:55.978Z,1004.71
2022-08-28T11:25:54.000Z,1004.73
2022-08-28T11:26:54.072Z,1004.77
2022-08-28T11:27:54.121Z,1004.79
2022-08-28T11:28:54.207Z,1004.77
2022-08-28T11:29:54.254Z,1004.77
2022-08-28T11:30:54.402Z,1004.77
2022-08-28T11:31:54.406Z,1004.83
2022-08-28T11:32:54.486Z,1004.80
2022-08-28T11:33:54.573Z,1004.87
2022-08-28T11:34:54.657Z,1004.80
2022-08-28T11:35:54.730Z,1004.85
2022-08-28T11:36:54.802Z,1004.83
2022-08-28T11:37:54.872Z,1004.78
2022-08-28T11:38:54.951Z,1004.77
2022-08-28T11:39:55.071Z,1004.75
2022-08-28T11:40:55.149Z,1004.80
2022-08-28T11:41:55.198Z,1004.77
2022-08-28T11:42:55.278Z,1004.79
2022-08-28T11:43:55.339Z,1004.81
2022-08-28T11:44:55.421Z,1004.77
2022-08-28T11:45:55.538Z,1004.77
2022-08-28T11:46:55.566Z,1004.75
2022-08-28T11:47:55.637Z,1004.82
2022-08-28T11:48:55.717Z,1004.79
2022-08-28T11:49:55.805Z,1004.77
2022-08-28T11:50:55.909Z,1004.74
2022-08-28T11:51:55.955Z,1004.77
2022-08-28T11:52:56.035Z,1004.82
2022-08-28T11:53:56.125Z,1004.82
2022-08-28T11:54:56.204Z,1004.75
2022-08-28T11:55:56.277Z,1004.80
2022-08-28T11:56:56.353Z,1004.78
2022-08-28T11:57:56.405Z,1004.77
2022-08-28T11:58:56.486Z,1004.80
2022-08-28T11:59:56.537Z,1004.82
2022-08-28T12:00:56.640Z,1004.88
2022-08-28T12:01:56.692Z,1004.83
2022-08-28T12:02:56.863Z,1004.77
2022-08-28T12:03:56.897Z,1004.81
2022-08-28T12:04:56.929Z,1004.80
2022-08-28T12:05:57.034Z,1004.71